sensor_id;sensor_type;location;lat;lon;timestamp;P1;durP1;ratioP1;P2;durP2;ratioP2
67146;SDS011;70072;52.036;5.558;2024-01-06T00:01:43;1.98;;;1.73;;
67146;SDS011;70072;52.036;5.558;2024-01-06T00:04:09;3.42;;;1.40;;
67146;SDS011;70072;52.036;5.558;2024-01-06T00:06:34;6.43;;;1.52;;
67146;SDS011;70072;52.036;5.558;2024-01-06T00:09:00;1.40;;;1.30;;
67146;SDS011;70072;52.036;5.558;2024-01-06T00:11:28;2.38;;;1.67;;
67146;SDS011;70072;52.036;5.558;2024-01-06T00:13:56;1.92;;;1.70;;
67146;SDS011;70072;52.036;5.558;2024-01-06T00:16:21;2.22;;;1.48;;
67146;SDS011;70072;52.036;5.558;2024-01-06T00:18:48;1.80;;;1.70;;
67146;SDS011;70072;52.036;5.558;2024-01-06T00:21:16;0.88;;;0.88;;
67146;SDS011;70072;52.036;5.558;2024-01-06T00:23:44;1.73;;;1.00;;
67146;SDS011;70072;52.036;5.558;2024-01-06T00:26:10;1.08;;;0.82;;
67146;SDS011;70072;52.036;5.558;2024-01-06T00:28:35;6.00;;;0.90;;
67146;SDS011;70072;52.036;5.558;2024-01-06T00:31:02;0.98;;;0.88;;
67146;SDS011;70072;52.036;5.558;2024-01-06T00:33:28;1.45;;;0.90;;
67146;SDS011;70072;52.036;5.558;2024-01-06T00:35:53;0.88;;;0.88;;
67146;SDS011;70072;52.036;5.558;2024-01-06T00:38:20;0.73;;;0.73;;
67146;SDS011;70072;52.036;5.558;2024-01-06T00:40:46;0.95;;;0.75;;
67146;SDS011;70072;52.036;5.558;2024-01-06T00:43:12;2.15;;;0.90;;
67146;SDS011;70072;52.036;5.558;2024-01-06T00:45:37;0.70;;;0.70;;
67146;SDS011;70072;52.036;5.558;2024-01-06T00:48:03;6.13;;;0.70;;
67146;SDS011;70072;52.036;5.558;2024-01-06T00:50:29;1.23;;;0.80;;
67146;SDS011;70072;52.036;5.558;2024-01-06T00:52:55;0.82;;;0.80;;
67146;SDS011;70072;52.036;5.558;2024-01-06T00:55:21;0.80;;;0.60;;
67146;SDS011;70072;52.036;5.558;2024-01-06T00:57:47;0.50;;;0.50;;
67146;SDS011;70072;52.036;5.558;2024-01-06T01:00:13;0.50;;;0.50;;
67146;SDS011;70072;52.036;5.558;2024-01-06T01:02:39;1.00;;;0.60;;
67146;SDS011;70072;52.036;5.558;2024-01-06T01:05:05;0.47;;;0.45;;
67146;SDS011;70072;52.036;5.558;2024-01-06T01:07:33;0.82;;;0.60;;
67146;SDS011;70072;52.036;5.558;2024-01-06T01:09:59;1.05;;;0.70;;
67146;SDS011;70072;52.036;5.558;2024-01-06T01:12:25;1.10;;;0.60;;
67146;SDS011;70072;52.036;5.558;2024-01-06T01:14:51;0.77;;;0.60;;
67146;SDS011;70072;52.036;5.558;2024-01-06T01:17:16;5.72;;;0.50;;
67146;SDS011;70072;52.036;5.558;2024-01-06T01:19:42;0.52;;;0.52;;
67146;SDS011;70072;52.036;5.558;2024-01-06T01:22:08;0.88;;;0.60;;
67146;SDS011;70072;52.036;5.558;2024-01-06T01:24:34;0.55;;;0.40;;
67146;SDS011;70072;52.036;5.558;2024-01-06T01:26:59;1.00;;;0.52;;
67146;SDS011;70072;52.036;5.558;2024-01-06T01:29:25;2.10;;;0.50;;
67146;SDS011;70072;52.036;5.558;2024-01-06T01:31:50;1.10;;;0.63;;
67146;SDS011;70072;52.036;5.558;2024-01-06T01:34:16;1.73;;;0.60;;
67146;SDS011;70072;52.036;5.558;2024-01-06T01:36:42;0.50;;;0.50;;
67146;SDS011;70072;52.036;5.558;2024-01-06T01:39:08;0.73;;;0.43;;
67146;SDS011;70072;52.036;5.558;2024-01-06T01:41:34;0.55;;;0.50;;
67146;SDS011;70072;52.036;5.558;2024-01-06T01:43:59;0.40;;;0.40;;
67146;SDS011;70072;52.036;5.558;2024-01-06T01:46:28;0.88;;;0.50;;
67146;SDS011;70072;52.036;5.558;2024-01-06T01:48:54;0.88;;;0.70;;
67146;SDS011;70072;52.036;5.558;2024-01-06T01:51:21;0.60;;;0.60;;
67146;SDS011;70072;52.036;5.558;2024-01-06T01:53:47;2.88;;;0.57;;
67146;SDS011;70072;52.036;5.558;2024-01-06T01:56:13;1.02;;;0.50;;
67146;SDS011;70072;52.036;5.558;2024-01-06T01:58:39;1.98;;;0.47;;
67146;SDS011;70072;52.036;5.558;2024-01-06T02:01:05;0.73;;;0.52;;
67146;SDS011;70072;52.036;5.558;2024-01-06T02:03:34;0.57;;;0.40;;
67146;SDS011;70072;52.036;5.558;2024-01-06T02:06:00;1.17;;;0.65;;
67146;SDS011;70072;52.036;5.558;2024-01-06T02:08:26;1.77;;;0.60;;
67146;SDS011;70072;52.036;5.558;2024-01-06T02:10:55;2.53;;;0.70;;
67146;SDS011;70072;52.036;5.558;2024-01-06T02:13:21;1.45;;;0.70;;
67146;SDS011;70072;52.036;5.558;2024-01-06T02:15:47;0.50;;;0.50;;
67146;SDS011;70072;52.036;5.558;2024-01-06T02:18:13;3.58;;;0.70;;
67146;SDS011;70072;52.036;5.558;2024-01-06T02:20:39;1.65;;;0.50;;
67146;SDS011;70072;52.036;5.558;2024-01-06T02:23:08;1.98;;;0.50;;
67146;SDS011;70072;52.036;5.558;2024-01-06T02:25:33;0.50;;;0.50;;
67146;SDS011;70072;52.036;5.558;2024-01-06T02:28:00;0.63;;;0.63;;
67146;SDS011;70072;52.036;5.558;2024-01-06T02:30:26;1.55;;;0.60;;
67146;SDS011;70072;52.036;5.558;2024-01-06T02:32:51;0.63;;;0.63;;
67146;SDS011;70072;52.036;5.558;2024-01-06T02:35:17;0.35;;;0.35;;
67146;SDS011;70072;52.036;5.558;2024-01-06T02:37:43;1.20;;;0.80;;
67146;SDS011;70072;52.036;5.558;2024-01-06T02:40:09;0.70;;;0.60;;
67146;SDS011;70072;52.036;5.558;2024-01-06T02:42:35;0.52;;;0.52;;
67146;SDS011;70072;52.036;5.558;2024-01-06T02:45:00;0.55;;;0.55;;
67146;SDS011;70072;52.036;5.558;2024-01-06T02:47:26;0.95;;;0.57;;
67146;SDS011;70072;52.036;5.558;2024-01-06T02:49:52;0.85;;;0.60;;
67146;SDS011;70072;52.036;5.558;2024-01-06T02:52:17;0.50;;;0.50;;
67146;SDS011;70072;52.036;5.558;2024-01-06T02:54:43;2.25;;;0.60;;
67146;SDS011;70072;52.036;5.558;2024-01-06T02:57:08;0.65;;;0.50;;
67146;SDS011;70072;52.036;5.558;2024-01-06T02:59:34;0.40;;;0.40;;
67146;SDS011;70072;52.036;5.558;2024-01-06T03:02:01;0.80;;;0.43;;
67146;SDS011;70072;52.036;5.558;2024-01-06T03:04:27;1.60;;;0.73;;
67146;SDS011;70072;52.036;5.558;2024-01-06T03:06:52;0.77;;;0.60;;
67146;SDS011;70072;52.036;5.558;2024-01-06T03:09:18;0.45;;;0.43;;
67146;SDS011;70072;52.036;5.558;2024-01-06T03:11:44;1.30;;;0.50;;
67146;SDS011;70072;52.036;5.558;2024-01-06T03:14:12;0.45;;;0.45;;
67146;SDS011;70072;52.036;5.558;2024-01-06T03:16:38;0.35;;;0.35;;
67146;SDS011;70072;52.036;5.558;2024-01-06T03:19:06;0.35;;;0.35;;
67146;SDS011;70072;52.036;5.558;2024-01-06T03:21:31;0.95;;;0.60;;
67146;SDS011;70072;52.036;5.558;2024-01-06T03:24:02;0.43;;;0.40;;
67146;SDS011;70072;52.036;5.558;2024-01-06T03:26:31;0.95;;;0.50;;
67146;SDS011;70072;52.036;5.558;2024-01-06T03:28:56;0.65;;;0.52;;
67146;SDS011;70072;52.036;5.558;2024-01-06T03:31:24;2.25;;;0.60;;
67146;SDS011;70072;52.036;5.558;2024-01-06T03:33:49;0.40;;;0.40;;
67146;SDS011;70072;52.036;5.558;2024-01-06T03:36:16;0.60;;;0.50;;
67146;SDS011;70072;52.036;5.558;2024-01-06T03:38:44;0.40;;;0.40;;
67146;SDS011;70072;52.036;5.558;2024-01-06T03:41:10;0.55;;;0.55;;
67146;SDS011;70072;52.036;5.558;2024-01-06T03:43:36;1.33;;;0.55;;
67146;SDS011;70072;52.036;5.558;2024-01-06T03:46:02;0.50;;;0.50;;
67146;SDS011;70072;52.036;5.558;2024-01-06T03:48:28;0.45;;;0.43;;
67146;SDS011;70072;52.036;5.558;2024-01-06T03:50:59;1.35;;;0.60;;
67146;SDS011;70072;52.036;5.558;2024-01-06T03:53:26;0.60;;;0.60;;
67146;SDS011;70072;52.036;5.558;2024-01-06T03:55:53;0.60;;;0.50;;
67146;SDS011;70072;52.036;5.558;2024-01-06T03:58:19;1.35;;;0.80;;
67146;SDS011;70072;52.036;5.558;2024-01-06T04:00:52;0.50;;;0.50;;
67146;SDS011;70072;52.036;5.558;2024-01-06T04:03:17;0.60;;;0.60;;
67146;SDS011;70072;52.036;5.558;2024-01-06T04:05:43;0.57;;;0.57;;
67146;SDS011;70072;52.036;5.558;2024-01-06T04:08:09;1.85;;;0.70;;
67146;SDS011;70072;52.036;5.558;2024-01-06T04:10:34;1.52;;;0.60;;
67146;SDS011;70072;52.036;5.558;2024-01-06T04:13:00;0.80;;;0.70;;
67146;SDS011;70072;52.036;5.558;2024-01-06T04:15:25;0.50;;;0.50;;
67146;SDS011;70072;52.036;5.558;2024-01-06T04:17:54;0.80;;;0.47;;
67146;SDS011;70072;52.036;5.558;2024-01-06T04:20:19;0.65;;;0.50;;
67146;SDS011;70072;52.036;5.558;2024-01-06T04:22:45;0.80;;;0.77;;
67146;SDS011;70072;52.036;5.558;2024-01-06T04:25:10;0.60;;;0.60;;
67146;SDS011;70072;52.036;5.558;2024-01-06T04:27:36;0.65;;;0.65;;
67146;SDS011;70072;52.036;5.558;2024-01-06T04:30:02;0.65;;;0.65;;
67146;SDS011;70072;52.036;5.558;2024-01-06T04:32:30;0.52;;;0.52;;
67146;SDS011;70072;52.036;5.558;2024-01-06T04:34:58;0.98;;;0.70;;
67146;SDS011;70072;52.036;5.558;2024-01-06T04:37:24;1.02;;;0.80;;
67146;SDS011;70072;52.036;5.558;2024-01-06T04:39:49;2.97;;;0.68;;
67146;SDS011;70072;52.036;5.558;2024-01-06T04:42:15;1.95;;;0.80;;
67146;SDS011;70072;52.036;5.558;2024-01-06T04:44:41;0.60;;;0.60;;
67146;SDS011;70072;52.036;5.558;2024-01-06T04:47:06;0.60;;;0.60;;
67146;SDS011;70072;52.036;5.558;2024-01-06T04:49:32;0.73;;;0.73;;
67146;SDS011;70072;52.036;5.558;2024-01-06T04:51:57;0.43;;;0.43;;
67146;SDS011;70072;52.036;5.558;2024-01-06T04:54:25;1.95;;;0.73;;
67146;SDS011;70072;52.036;5.558;2024-01-06T04:56:51;0.80;;;0.70;;
67146;SDS011;70072;52.036;5.558;2024-01-06T04:59:17;1.33;;;0.63;;
67146;SDS011;70072;52.036;5.558;2024-01-06T05:01:42;0.80;;;0.70;;
67146;SDS011;70072;52.036;5.558;2024-01-06T05:04:08;0.50;;;0.50;;
67146;SDS011;70072;52.036;5.558;2024-01-06T05:06:34;0.60;;;0.50;;
67146;SDS011;70072;52.036;5.558;2024-01-06T05:08:59;0.75;;;0.50;;
67146;SDS011;70072;52.036;5.558;2024-01-06T05:11:25;0.73;;;0.60;;
67146;SDS011;70072;52.036;5.558;2024-01-06T05:13:50;0.50;;;0.50;;
67146;SDS011;70072;52.036;5.558;2024-01-06T05:16:16;0.63;;;0.40;;
67146;SDS011;70072;52.036;5.558;2024-01-06T05:18:42;0.50;;;0.50;;
67146;SDS011;70072;52.036;5.558;2024-01-06T05:21:07;0.63;;;0.60;;
67146;SDS011;70072;52.036;5.558;2024-01-06T05:23:33;0.55;;;0.55;;
67146;SDS011;70072;52.036;5.558;2024-01-06T05:25:58;0.50;;;0.50;;
67146;SDS011;70072;52.036;5.558;2024-01-06T05:28:24;0.43;;;0.40;;
67146;SDS011;70072;52.036;5.558;2024-01-06T05:30:50;0.50;;;0.50;;
67146;SDS011;70072;52.036;5.558;2024-01-06T05:33:15;0.63;;;0.50;;
67146;SDS011;70072;52.036;5.558;2024-01-06T05:35:44;0.60;;;0.60;;
67146;SDS011;70072;52.036;5.558;2024-01-06T05:38:09;0.40;;;0.40;;
67146;SDS011;70072;52.036;5.558;2024-01-06T05:40:35;0.52;;;0.43;;
67146;SDS011;70072;52.036;5.558;2024-01-06T05:43:00;0.43;;;0.43;;
67146;SDS011;70072;52.036;5.558;2024-01-06T05:45:26;2.42;;;0.50;;
67146;SDS011;70072;52.036;5.558;2024-01-06T05:47:52;0.30;;;0.30;;
67146;SDS011;70072;52.036;5.558;2024-01-06T05:50:17;0.88;;;0.50;;
67146;SDS011;70072;52.036;5.558;2024-01-06T05:52:43;0.40;;;0.40;;
67146;SDS011;70072;52.036;5.558;2024-01-06T05:55:09;1.33;;;0.50;;
67146;SDS011;70072;52.036;5.558;2024-01-06T05:57:35;0.40;;;0.40;;
67146;SDS011;70072;52.036;5.558;2024-01-06T06:00:01;0.50;;;0.40;;
67146;SDS011;70072;52.036;5.558;2024-01-06T06:02:26;0.50;;;0.50;;
67146;SDS011;70072;52.036;5.558;2024-01-06T06:04:52;0.60;;;0.40;;
67146;SDS011;70072;52.036;5.558;2024-01-06T06:07:18;0.52;;;0.30;;
67146;SDS011;70072;52.036;5.558;2024-01-06T06:09:45;0.40;;;0.30;;
67146;SDS011;70072;52.036;5.558;2024-01-06T06:12:12;0.40;;;0.40;;
67146;SDS011;70072;52.036;5.558;2024-01-06T06:14:38;0.38;;;0.38;;
67146;SDS011;70072;52.036;5.558;2024-01-06T06:17:04;0.63;;;0.50;;
67146;SDS011;70072;52.036;5.558;2024-01-06T06:19:31;0.50;;;0.50;;
67146;SDS011;70072;52.036;5.558;2024-01-06T06:21:56;0.50;;;0.40;;
67146;SDS011;70072;52.036;5.558;2024-01-06T06:24:25;2.15;;;0.45;;
67146;SDS011;70072;52.036;5.558;2024-01-06T06:26:51;3.08;;;0.50;;
67146;SDS011;70072;52.036;5.558;2024-01-06T06:29:16;0.55;;;0.50;;
67146;SDS011;70072;52.036;5.558;2024-01-06T06:31:42;0.50;;;0.40;;
67146;SDS011;70072;52.036;5.558;2024-01-06T06:34:11;0.57;;;0.50;;
67146;SDS011;70072;52.036;5.558;2024-01-06T06:36:37;0.38;;;0.38;;
67146;SDS011;70072;52.036;5.558;2024-01-06T06:39:05;1.52;;;0.55;;
67146;SDS011;70072;52.036;5.558;2024-01-06T06:41:31;4.03;;;0.80;;
67146;SDS011;70072;52.036;5.558;2024-01-06T06:43:57;0.60;;;0.50;;
67146;SDS011;70072;52.036;5.558;2024-01-06T06:46:23;1.02;;;0.70;;
67146;SDS011;70072;52.036;5.558;2024-01-06T06:48:51;0.40;;;0.40;;
67146;SDS011;70072;52.036;5.558;2024-01-06T06:51:16;2.35;;;0.30;;
67146;SDS011;70072;52.036;5.558;2024-01-06T06:53:42;0.43;;;0.43;;
67146;SDS011;70072;52.036;5.558;2024-01-06T06:56:08;0.60;;;0.55;;
67146;SDS011;70072;52.036;5.558;2024-01-06T06:58:33;0.52;;;0.52;;
67146;SDS011;70072;52.036;5.558;2024-01-06T07:00:59;0.43;;;0.40;;
67146;SDS011;70072;52.036;5.558;2024-01-06T07:03:24;0.52;;;0.40;;
67146;SDS011;70072;52.036;5.558;2024-01-06T07:05:51;0.50;;;0.50;;
67146;SDS011;70072;52.036;5.558;2024-01-06T07:08:17;0.40;;;0.40;;
67146;SDS011;70072;52.036;5.558;2024-01-06T07:10:43;0.60;;;0.60;;
67146;SDS011;70072;52.036;5.558;2024-01-06T07:13:08;0.68;;;0.40;;
67146;SDS011;70072;52.036;5.558;2024-01-06T07:15:34;0.45;;;0.40;;
67146;SDS011;70072;52.036;5.558;2024-01-06T07:18:00;1.02;;;0.60;;
67146;SDS011;70072;52.036;5.558;2024-01-06T07:20:25;0.68;;;0.40;;
67146;SDS011;70072;52.036;5.558;2024-01-06T07:22:51;0.43;;;0.43;;
67146;SDS011;70072;52.036;5.558;2024-01-06T07:25:16;0.50;;;0.50;;
67146;SDS011;70072;52.036;5.558;2024-01-06T07:27:42;0.60;;;0.40;;
67146;SDS011;70072;52.036;5.558;2024-01-06T07:30:08;0.90;;;0.70;;
67146;SDS011;70072;52.036;5.558;2024-01-06T07:32:34;0.65;;;0.52;;
67146;SDS011;70072;52.036;5.558;2024-01-06T07:34:59;0.50;;;0.50;;
67146;SDS011;70072;52.036;5.558;2024-01-06T07:37:25;0.50;;;0.50;;
67146;SDS011;70072;52.036;5.558;2024-01-06T07:39:53;1.38;;;0.70;;
67146;SDS011;70072;52.036;5.558;2024-01-06T07:42:19;1.52;;;0.70;;
67146;SDS011;70072;52.036;5.558;2024-01-06T07:44:44;0.43;;;0.43;;
67146;SDS011;70072;52.036;5.558;2024-01-06T07:47:12;0.30;;;0.30;;
67146;SDS011;70072;52.036;5.558;2024-01-06T07:49:40;1.27;;;0.43;;
67146;SDS011;70072;52.036;5.558;2024-01-06T07:52:06;0.70;;;0.50;;
67146;SDS011;70072;52.036;5.558;2024-01-06T07:54:31;0.40;;;0.40;;
67146;SDS011;70072;52.036;5.558;2024-01-06T07:56:57;0.40;;;0.40;;
67146;SDS011;70072;52.036;5.558;2024-01-06T07:59:22;1.20;;;0.40;;
67146;SDS011;70072;52.036;5.558;2024-01-06T08:01:48;0.65;;;0.50;;
67146;SDS011;70072;52.036;5.558;2024-01-06T08:04:14;0.55;;;0.47;;
67146;SDS011;70072;52.036;5.558;2024-01-06T08:06:45;0.50;;;0.50;;
67146;SDS011;70072;52.036;5.558;2024-01-06T08:09:10;0.80;;;0.50;;
67146;SDS011;70072;52.036;5.558;2024-01-06T08:11:36;0.50;;;0.43;;
67146;SDS011;70072;52.036;5.558;2024-01-06T08:14:06;0.77;;;0.50;;
67146;SDS011;70072;52.036;5.558;2024-01-06T08:16:32;0.90;;;0.75;;
67146;SDS011;70072;52.036;5.558;2024-01-06T08:18:57;0.60;;;0.60;;
67146;SDS011;70072;52.036;5.558;2024-01-06T08:21:23;1.65;;;0.88;;
67146;SDS011;70072;52.036;5.558;2024-01-06T08:23:50;2.17;;;0.95;;
67146;SDS011;70072;52.036;5.558;2024-01-06T08:26:18;3.65;;;0.80;;
67146;SDS011;70072;52.036;5.558;2024-01-06T08:28:43;1.38;;;0.68;;
67146;SDS011;70072;52.036;5.558;2024-01-06T08:31:09;3.25;;;0.68;;
67146;SDS011;70072;52.036;5.558;2024-01-06T08:33:35;2.53;;;0.95;;
67146;SDS011;70072;52.036;5.558;2024-01-06T08:36:00;3.28;;;1.10;;
67146;SDS011;70072;52.036;5.558;2024-01-06T08:38:26;3.97;;;0.70;;
67146;SDS011;70072;52.036;5.558;2024-01-06T08:40:51;0.80;;;0.70;;
67146;SDS011;70072;52.036;5.558;2024-01-06T08:43:18;0.82;;;0.80;;
67146;SDS011;70072;52.036;5.558;2024-01-06T08:45:44;4.57;;;0.70;;
67146;SDS011;70072;52.036;5.558;2024-01-06T08:48:10;3.38;;;1.02;;
67146;SDS011;70072;52.036;5.558;2024-01-06T08:50:38;3.53;;;0.90;;
67146;SDS011;70072;52.036;5.558;2024-01-06T08:53:04;2.40;;;0.70;;
67146;SDS011;70072;52.036;5.558;2024-01-06T08:55:30;2.58;;;0.90;;
67146;SDS011;70072;52.036;5.558;2024-01-06T08:57:55;2.17;;;0.80;;
67146;SDS011;70072;52.036;5.558;2024-01-06T09:00:21;3.47;;;0.93;;
67146;SDS011;70072;52.036;5.558;2024-01-06T09:02:46;2.63;;;1.20;;
67146;SDS011;70072;52.036;5.558;2024-01-06T09:05:13;1.35;;;0.90;;
67146;SDS011;70072;52.036;5.558;2024-01-06T09:07:38;1.38;;;0.80;;
67146;SDS011;70072;52.036;5.558;2024-01-06T09:10:04;3.35;;;0.93;;
67146;SDS011;70072;52.036;5.558;2024-01-06T09:12:32;1.85;;;0.90;;
67146;SDS011;70072;52.036;5.558;2024-01-06T09:14:57;6.13;;;1.00;;
67146;SDS011;70072;52.036;5.558;2024-01-06T09:17:23;3.95;;;1.08;;
67146;SDS011;70072;52.036;5.558;2024-01-06T09:19:49;5.97;;;0.80;;
67146;SDS011;70072;52.036;5.558;2024-01-06T09:22:14;5.40;;;1.15;;
67146;SDS011;70072;52.036;5.558;2024-01-06T09:24:40;3.03;;;1.08;;
67146;SDS011;70072;52.036;5.558;2024-01-06T09:27:05;2.13;;;1.10;;
67146;SDS011;70072;52.036;5.558;2024-01-06T09:29:31;3.22;;;0.90;;
67146;SDS011;70072;52.036;5.558;2024-01-06T09:31:57;5.70;;;1.27;;
67146;SDS011;70072;52.036;5.558;2024-01-06T09:34:22;1.58;;;0.90;;
67146;SDS011;70072;52.036;5.558;2024-01-06T09:36:48;8.30;;;1.08;;
67146;SDS011;70072;52.036;5.558;2024-01-06T09:39:14;1.23;;;0.98;;
67146;SDS011;70072;52.036;5.558;2024-01-06T09:41:39;1.73;;;0.90;;
67146;SDS011;70072;52.036;5.558;2024-01-06T09:44:05;5.97;;;1.05;;
67146;SDS011;70072;52.036;5.558;2024-01-06T09:46:31;2.78;;;1.13;;
67146;SDS011;70072;52.036;5.558;2024-01-06T09:48:57;3.30;;;1.00;;
67146;SDS011;70072;52.036;5.558;2024-01-06T09:51:23;5.32;;;1.13;;
67146;SDS011;70072;52.036;5.558;2024-01-06T09:54:03;1.88;;;1.00;;
67146;SDS011;70072;52.036;5.558;2024-01-06T09:56:33;2.67;;;0.82;;
67146;SDS011;70072;52.036;5.558;2024-01-06T09:58:59;2.80;;;0.95;;
67146;SDS011;70072;52.036;5.558;2024-01-06T10:01:25;3.83;;;0.95;;
67146;SDS011;70072;52.036;5.558;2024-01-06T10:03:50;1.90;;;1.05;;
67146;SDS011;70072;52.036;5.558;2024-01-06T10:06:16;3.58;;;0.80;;
67146;SDS011;70072;52.036;5.558;2024-01-06T10:08:49;2.42;;;1.00;;
67146;SDS011;70072;52.036;5.558;2024-01-06T10:11:16;1.50;;;0.90;;
67146;SDS011;70072;52.036;5.558;2024-01-06T10:13:41;3.25;;;1.10;;
67146;SDS011;70072;52.036;5.558;2024-01-06T10:16:07;4.22;;;1.10;;
67146;SDS011;70072;52.036;5.558;2024-01-06T10:18:33;4.85;;;1.10;;
67146;SDS011;70072;52.036;5.558;2024-01-06T10:21:03;4.55;;;1.17;;
67146;SDS011;70072;52.036;5.558;2024-01-06T10:23:31;1.88;;;0.90;;
67146;SDS011;70072;52.036;5.558;2024-01-06T10:25:57;1.85;;;0.90;;
67146;SDS011;70072;52.036;5.558;2024-01-06T10:28:22;1.60;;;1.02;;
67146;SDS011;70072;52.036;5.558;2024-01-06T10:30:52;4.57;;;1.08;;
67146;SDS011;70072;52.036;5.558;2024-01-06T10:33:22;2.08;;;1.10;;
67146;SDS011;70072;52.036;5.558;2024-01-06T10:35:49;3.92;;;1.20;;
67146;SDS011;70072;52.036;5.558;2024-01-06T10:38:14;3.42;;;1.33;;
67146;SDS011;70072;52.036;5.558;2024-01-06T10:40:55;1.10;;;0.90;;
67146;SDS011;70072;52.036;5.558;2024-01-06T10:43:32;3.05;;;1.38;;
67146;SDS011;70072;52.036;5.558;2024-01-06T10:46:02;4.05;;;1.40;;
67146;SDS011;70072;52.036;5.558;2024-01-06T10:48:32;3.42;;;1.13;;
67146;SDS011;70072;52.036;5.558;2024-01-06T10:50:59;2.28;;;1.10;;
67146;SDS011;70072;52.036;5.558;2024-01-06T10:53:27;3.58;;;1.30;;
67146;SDS011;70072;52.036;5.558;2024-01-06T10:55:53;5.43;;;1.20;;
67146;SDS011;70072;52.036;5.558;2024-01-06T10:58:20;2.50;;;1.38;;
67146;SDS011;70072;52.036;5.558;2024-01-06T11:00:51;3.97;;;1.25;;
67146;SDS011;70072;52.036;5.558;2024-01-06T11:03:17;2.67;;;1.20;;
67146;SDS011;70072;52.036;5.558;2024-01-06T11:05:46;3.13;;;1.30;;
67146;SDS011;70072;52.036;5.558;2024-01-06T11:08:16;2.85;;;1.05;;
67146;SDS011;70072;52.036;5.558;2024-01-06T11:10:43;5.22;;;1.20;;
67146;SDS011;70072;52.036;5.558;2024-01-06T11:13:10;3.35;;;1.00;;
67146;SDS011;70072;52.036;5.558;2024-01-06T11:24:03;2.45;;;0.90;;
67146;SDS011;70072;52.036;5.558;2024-01-06T11:26:38;2.85;;;0.90;;
67146;SDS011;70072;52.036;5.558;2024-01-06T11:29:05;3.72;;;1.15;;
67146;SDS011;70072;52.036;5.558;2024-01-06T11:31:32;2.42;;;1.10;;
67146;SDS011;70072;52.036;5.558;2024-01-06T11:34:11;1.02;;;0.85;;
67146;SDS011;70072;52.036;5.558;2024-01-06T11:36:49;1.55;;;1.10;;
67146;SDS011;70072;52.036;5.558;2024-01-06T11:39:34;1.75;;;0.90;;
67146;SDS011;70072;52.036;5.558;2024-01-06T11:42:01;3.97;;;0.90;;
67146;SDS011;70072;52.036;5.558;2024-01-06T11:44:28;2.25;;;1.10;;
67146;SDS011;70072;52.036;5.558;2024-01-06T11:46:57;15.02;;;1.13;;
67146;SDS011;70072;52.036;5.558;2024-01-06T11:49:26;1.50;;;0.77;;
67146;SDS011;70072;52.036;5.558;2024-01-06T11:51:55;1.10;;;0.77;;
67146;SDS011;70072;52.036;5.558;2024-01-06T11:54:21;4.78;;;0.90;;
67146;SDS011;70072;52.036;5.558;2024-01-06T11:56:48;5.53;;;1.25;;
67146;SDS011;70072;52.036;5.558;2024-01-06T11:59:13;2.17;;;0.80;;
67146;SDS011;70072;52.036;5.558;2024-01-06T12:01:39;2.17;;;1.08;;
67146;SDS011;70072;52.036;5.558;2024-01-06T12:04:08;2.38;;;0.85;;
67146;SDS011;70072;52.036;5.558;2024-01-06T12:09:06;3.45;;;0.95;;
67146;SDS011;70072;52.036;5.558;2024-01-06T12:11:35;7.45;;;1.63;;
67146;SDS011;70072;52.036;5.558;2024-01-06T12:14:04;4.55;;;1.95;;
67146;SDS011;70072;52.036;5.558;2024-01-06T12:19:29;4.85;;;2.15;;
67146;SDS011;70072;52.036;5.558;2024-01-06T12:22:02;8.38;;;2.38;;
67146;SDS011;70072;52.036;5.558;2024-01-06T12:25:03;4.45;;;2.30;;
67146;SDS011;70072;52.036;5.558;2024-01-06T12:27:52;5.20;;;2.60;;
67146;SDS011;70072;52.036;5.558;2024-01-06T12:30:19;3.95;;;2.42;;
67146;SDS011;70072;52.036;5.558;2024-01-06T12:32:47;3.78;;;2.28;;
67146;SDS011;70072;52.036;5.558;2024-01-06T12:35:14;4.10;;;2.20;;
67146;SDS011;70072;52.036;5.558;2024-01-06T12:37:43;6.97;;;2.95;;
67146;SDS011;70072;52.036;5.558;2024-01-06T12:40:17;10.30;;;2.33;;
67146;SDS011;70072;52.036;5.558;2024-01-06T12:42:44;5.03;;;2.65;;
67146;SDS011;70072;52.036;5.558;2024-01-06T12:45:10;8.65;;;2.45;;
67146;SDS011;70072;52.036;5.558;2024-01-06T12:47:37;7.20;;;3.05;;
67146;SDS011;70072;52.036;5.558;2024-01-06T12:50:03;5.30;;;3.03;;
67146;SDS011;70072;52.036;5.558;2024-01-06T12:52:31;6.53;;;3.08;;
67146;SDS011;70072;52.036;5.558;2024-01-06T12:54:58;6.68;;;3.10;;
67146;SDS011;70072;52.036;5.558;2024-01-06T12:57:24;8.05;;;3.22;;
67146;SDS011;70072;52.036;5.558;2024-01-06T12:59:50;7.20;;;3.25;;
67146;SDS011;70072;52.036;5.558;2024-01-06T13:02:19;10.05;;;2.80;;
67146;SDS011;70072;52.036;5.558;2024-01-06T13:04:46;6.45;;;3.13;;
67146;SDS011;70072;52.036;5.558;2024-01-06T13:07:13;7.47;;;2.90;;
67146;SDS011;70072;52.036;5.558;2024-01-06T13:09:39;5.47;;;2.90;;
67146;SDS011;70072;52.036;5.558;2024-01-06T13:12:05;5.88;;;2.40;;
67146;SDS011;70072;52.036;5.558;2024-01-06T13:14:31;7.40;;;3.10;;
67146;SDS011;70072;52.036;5.558;2024-01-06T13:17:00;9.07;;;2.97;;
67146;SDS011;70072;52.036;5.558;2024-01-06T13:19:26;5.75;;;2.72;;
67146;SDS011;70072;52.036;5.558;2024-01-06T13:21:52;4.22;;;2.60;;
67146;SDS011;70072;52.036;5.558;2024-01-06T13:24:18;6.57;;;2.28;;
67146;SDS011;70072;52.036;5.558;2024-01-06T13:26:43;5.88;;;2.60;;
67146;SDS011;70072;52.036;5.558;2024-01-06T13:29:12;3.88;;;2.63;;
67146;SDS011;70072;52.036;5.558;2024-01-06T13:31:38;5.55;;;2.65;;
67146;SDS011;70072;52.036;5.558;2024-01-06T13:34:04;5.88;;;2.95;;
67146;SDS011;70072;52.036;5.558;2024-01-06T13:36:30;3.95;;;2.33;;
67146;SDS011;70072;52.036;5.558;2024-01-06T13:38:56;5.32;;;2.38;;
67146;SDS011;70072;52.036;5.558;2024-01-06T13:41:24;7.75;;;3.35;;
67146;SDS011;70072;52.036;5.558;2024-01-06T13:43:50;8.30;;;2.50;;
67146;SDS011;70072;52.036;5.558;2024-01-06T13:46:16;7.22;;;2.30;;
67146;SDS011;70072;52.036;5.558;2024-01-06T13:48:43;8.07;;;2.35;;
67146;SDS011;70072;52.036;5.558;2024-01-06T13:51:09;5.18;;;2.30;;
67146;SDS011;70072;52.036;5.558;2024-01-06T13:53:35;3.40;;;2.15;;
67146;SDS011;70072;52.036;5.558;2024-01-06T13:56:04;4.25;;;2.35;;
67146;SDS011;70072;52.036;5.558;2024-01-06T13:58:35;4.10;;;2.22;;
67146;SDS011;70072;52.036;5.558;2024-01-06T14:01:01;4.60;;;2.20;;
67146;SDS011;70072;52.036;5.558;2024-01-06T14:03:27;5.70;;;2.40;;
67146;SDS011;70072;52.036;5.558;2024-01-06T14:05:53;6.38;;;2.38;;
67146;SDS011;70072;52.036;5.558;2024-01-06T14:08:21;2.42;;;1.88;;
67146;SDS011;70072;52.036;5.558;2024-01-06T14:10:46;3.85;;;2.08;;
67146;SDS011;70072;52.036;5.558;2024-01-06T14:13:12;6.47;;;2.40;;
67146;SDS011;70072;52.036;5.558;2024-01-06T14:15:37;3.42;;;2.00;;
67146;SDS011;70072;52.036;5.558;2024-01-06T14:18:11;3.35;;;1.90;;
67146;SDS011;70072;52.036;5.558;2024-01-06T14:20:39;5.00;;;1.85;;
67146;SDS011;70072;52.036;5.558;2024-01-06T14:23:09;4.70;;;2.13;;
67146;SDS011;70072;52.036;5.558;2024-01-06T14:25:40;5.07;;;2.30;;
67146;SDS011;70072;52.036;5.558;2024-01-06T14:28:06;6.80;;;2.20;;
67146;SDS011;70072;52.036;5.558;2024-01-06T14:30:31;3.83;;;2.00;;
67146;SDS011;70072;52.036;5.558;2024-01-06T14:32:57;13.77;;;2.28;;
67146;SDS011;70072;52.036;5.558;2024-01-06T14:35:25;3.85;;;1.88;;
67146;SDS011;70072;52.036;5.558;2024-01-06T14:37:50;3.67;;;1.90;;
67146;SDS011;70072;52.036;5.558;2024-01-06T14:40:17;3.03;;;1.90;;
67146;SDS011;70072;52.036;5.558;2024-01-06T14:42:43;3.05;;;1.70;;
67146;SDS011;70072;52.036;5.558;2024-01-06T14:45:09;2.33;;;1.67;;
67146;SDS011;70072;52.036;5.558;2024-01-06T14:47:35;3.22;;;1.90;;
67146;SDS011;70072;52.036;5.558;2024-01-06T14:50:00;2.80;;;1.70;;
67146;SDS011;70072;52.036;5.558;2024-01-06T14:52:26;4.90;;;1.90;;
67146;SDS011;70072;52.036;5.558;2024-01-06T14:54:55;3.45;;;1.60;;
67146;SDS011;70072;52.036;5.558;2024-01-06T14:57:23;2.00;;;1.47;;
67146;SDS011;70072;52.036;5.558;2024-01-06T14:59:49;2.67;;;1.73;;